Time;durP1;ratioP1;P1;durP2;ratioP2;P2;SDS_P1;SDS_P2;PMS_P1;PMS_P2;Temp;Humidity;BMP_temperature;BMP_pressure;BME280_temperature;BME280_humidity;BME280_pressure;Samples;Min_cycle;Max_cycle;Signal;HPM_P1;HPM_P2
2022/12/09 00:02:15;;;;;;;13.80;9.77;;;1.80;99.90;;;-141.84;86.22;18442.25;5051519;28;20229;-62
2022/12/09 00:04:43;;;;;;;14.00;9.27;;;1.90;99.90;;;-141.84;86.25;18450.38;5051589;28;20239;-63
2022/12/09 00:07:13;;;;;;;12.43;9.30;;;1.90;99.90;;;-141.84;86.39;18421.91;5051453;28;20279;-65
2022/12/09 00:09:41;;;;;;;14.17;9.33;;;1.90;99.90;;;-141.84;86.36;18452.41;5051767;28;20623;-62
2022/12/09 00:12:10;;;;;;;14.97;10.53;;;1.90;99.90;;;-141.84;86.11;18456.47;5051080;28;20643;-64
2022/12/09 00:14:38;;;;;;;17.73;12.57;;;1.90;99.90;;;-141.84;86.01;18448.34;5051726;28;20232;-63
2022/12/09 00:17:06;;;;;;;16.30;11.17;;;1.90;99.90;;;-141.84;86.23;18442.25;5051070;28;20228;-63
2022/12/09 00:19:34;;;;;;;13.50;9.10;;;1.90;99.90;;;-141.84;86.07;18462.56;5051537;28;20230;-63
2022/12/09 00:22:03;;;;;;;13.77;9.20;;;1.90;99.90;;;-141.84;85.88;18452.41;5051495;28;20685;-63
2022/12/09 00:24:32;;;;;;;13.83;9.73;;;1.90;99.90;;;-141.84;85.78;18442.25;5051583;28;20229;-64
2022/12/09 00:27:01;;;;;;;13.17;8.80;;;1.90;99.90;;;-141.84;86.02;18460.53;5051945;28;20259;-63
2022/12/09 00:29:29;;;;;;;13.83;9.47;;;1.90;99.90;;;-141.84;86.41;18446.31;5051699;28;20884;-63
2022/12/09 00:31:58;;;;;;;12.43;8.87;;;1.80;99.90;;;-141.84;86.94;18452.41;5051398;28;20901;-64
2022/12/09 00:34:26;;;;;;;15.07;10.10;;;1.80;99.90;;;-141.84;87.01;18425.97;5051582;28;20236;-63
2022/12/09 00:36:54;;;;;;;15.70;10.30;;;1.80;99.90;;;-141.84;86.60;18442.25;5051084;28;20234;-65
2022/12/09 00:39:22;;;;;;;15.07;10.00;;;1.80;99.90;;;-141.84;86.80;18419.88;5051234;28;20240;-63
2022/12/09 00:41:52;;;;;;;12.90;9.53;;;1.90;99.90;;;-141.84;87.30;18462.56;5051770;28;20209;-62
2022/12/09 00:44:20;;;;;;;16.10;11.10;;;1.80;99.90;;;-141.84;87.58;18432.09;5050926;28;20234;-63
2022/12/09 00:46:49;;;;;;;16.07;10.23;;;1.80;99.90;;;-141.84;87.87;18446.31;5051138;28;20240;-63
2022/12/09 00:49:17;;;;;;;16.50;10.93;;;1.80;99.90;;;-141.84;87.84;18444.28;5051099;28;20229;-63
2022/12/09 00:51:45;;;;;;;18.17;11.07;;;1.90;99.90;;;-141.84;87.37;18448.34;5050787;28;20235;-63
2022/12/09 00:54:13;;;;;;;19.07;12.53;;;1.90;99.90;;;-141.84;87.02;18430.06;5051236;28;20197;-63
2022/12/09 00:56:42;;;;;;;20.33;13.93;;;2.00;99.90;;;-141.84;86.94;18438.19;5051050;28;20679;-64
2022/12/09 00:59:11;;;;;;;18.47;12.77;;;2.00;99.90;;;-141.84;86.82;18430.06;5051005;28;20260;-62
2022/12/09 01:01:39;;;;;;;20.50;13.73;;;2.00;99.90;;;-141.84;86.94;18436.16;5050588;28;20228;-63
2022/12/09 01:04:08;;;;;;;17.87;11.97;;;2.00;99.90;;;-141.84;86.98;18425.97;5050987;28;20227;-64
2022/12/09 01:06:36;;;;;;;18.73;12.07;;;2.00;99.90;;;-141.84;87.00;18428.03;5051333;28;20231;-64
2022/12/09 01:09:05;;;;;;;17.40;12.30;;;2.10;99.90;;;-141.84;86.69;18454.44;5050905;28;20202;-63
2022/12/09 01:11:33;;;;;;;15.67;10.87;;;2.10;99.90;;;-141.84;86.23;18434.13;5051450;28;20713;-63
2022/12/09 01:14:03;;;;;;;17.13;11.33;;;2.10;99.90;;;-141.84;85.77;18454.44;5050552;28;20307;-63
2022/12/09 01:16:34;;;;;;;17.40;11.50;;;2.10;99.90;;;-141.84;85.60;18444.28;5050772;28;20233;-64
2022/12/09 01:19:06;;;;;;;16.30;10.47;;;2.10;99.90;;;-141.84;85.68;18428.03;5050838;28;20225;-63
2022/12/09 01:21:35;;;;;;;18.30;12.37;;;2.10;99.90;;;-141.84;86.39;18446.31;5051088;28;20253;-65
2022/12/09 01:24:08;;;;;;;19.37;13.27;;;2.10;99.90;;;-141.84;86.56;18446.31;5050589;28;20712;-64
2022/12/09 01:26:38;;;;;;;21.33;13.80;;;2.00;99.90;;;-141.84;86.65;18452.41;5051662;28;20521;-63
2022/12/09 01:29:06;;;;;;;18.37;13.30;;;2.00;99.90;;;-141.84;86.96;18460.53;5050746;28;20260;-63
2022/12/09 01:31:36;;;;;;;22.77;15.67;;;2.00;99.90;;;-141.84;87.34;18444.28;5050472;28;20673;-63
2022/12/09 01:34:05;;;;;;;21.53;15.03;;;2.00;99.90;;;-141.84;87.39;18458.50;5050822;28;20236;-64
2022/12/09 01:36:33;;;;;;;21.10;13.07;;;2.00;99.90;;;-141.84;87.39;18440.22;5050876;28;20596;-63
2022/12/09 01:39:02;;;;;;;18.03;12.67;;;2.10;99.90;;;-141.84;87.58;18440.22;5051105;28;20201;-64
2022/12/09 01:41:30;;;;;;;16.97;12.30;;;2.00;99.90;;;-141.84;87.39;18413.78;5050794;28;20553;-62
2022/12/09 01:44:11;;;;;;;18.73;12.53;;;2.00;99.90;;;-141.84;87.43;18442.25;5050327;28;20703;-64
2022/12/09 01:46:41;;;;;;;16.53;11.77;;;2.00;99.90;;;-141.84;87.17;18425.97;5050520;28;20251;-64
2022/12/09 01:49:15;;;;;;;16.20;10.73;;;2.00;99.90;;;-141.84;87.19;18448.34;5050292;28;20746;-63
2022/12/09 01:51:51;;;;;;;19.10;11.63;;;2.00;99.90;;;-141.84;87.27;18430.06;5050509;28;20244;-64
2022/12/09 01:54:20;;;;;;;15.83;10.77;;;2.00;99.90;;;-141.84;87.58;18430.06;5050258;28;20185;-61
2022/12/09 01:56:49;;;;;;;17.17;11.47;;;2.00;99.90;;;-141.84;87.89;18415.81;5051260;28;20210;-62
2022/12/09 01:59:17;;;;;;;17.30;11.83;;;1.90;99.90;;;-141.84;88.11;18432.09;5050320;28;20224;-63
2022/12/09 02:01:54;;;;;;;17.10;11.77;;;2.00;99.90;;;-141.84;88.12;18423.94;5050187;28;20257;-62
2022/12/09 02:04:22;;;;;;;19.80;12.40;;;1.90;99.90;;;-141.84;88.38;18399.56;5050035;28;20221;-62
2022/12/09 02:06:51;;;;;;;17.03;10.17;;;1.90;99.90;;;-141.84;88.47;18405.66;5050670;28;20281;-61
2022/12/09 02:09:20;;;;;;;16.07;10.73;;;2.00;99.90;;;-141.84;88.61;18387.38;5050321;28;20202;-64
2022/12/09 02:12:09;;;;;;;15.43;9.87;;;2.00;99.90;;;-141.84;89.01;18397.53;5050918;28;20200;-63
2022/12/09 02:14:43;;;;;;;15.57;10.43;;;2.00;99.90;;;-141.84;88.97;18395.50;5053875;28;20649;-63
2022/12/09 02:17:27;;;;;;;16.60;9.50;;;2.00;99.90;;;-141.84;88.59;18432.09;5053444;28;20251;-63
2022/12/09 02:20:08;;;;;;;18.43;11.63;;;2.10;99.90;;;-141.84;87.89;18415.81;5053719;28;20274;-61
2022/12/09 02:22:43;;;;;;;15.93;10.57;;;2.10;99.90;;;-141.84;87.61;18419.88;5053465;28;20632;-64
2022/12/09 02:25:27;;;;;;;16.60;11.20;;;2.10;99.90;;;-141.84;87.79;18415.81;5053436;28;20228;-64
2022/12/09 02:28:34;;;;;;;17.90;11.40;;;2.00;99.90;;;-141.84;87.44;18405.66;5053765;28;20232;-63
2022/12/09 02:31:17;;;;;;;17.00;11.40;;;2.00;99.90;;;-141.84;87.29;18415.81;5053514;28;20225;-64
2022/12/09 02:34:11;;;;;;;17.80;11.67;;;2.00;99.90;;;-141.84;87.46;18444.28;5053042;28;20734;-63
2022/12/09 02:36:52;;;;;;;18.97;12.30;;;1.90;99.90;;;-141.84;87.40;18428.03;5053595;28;20232;-64
2022/12/09 02:39:29;;;;;;;17.30;11.40;;;1.90;99.90;;;-141.84;87.40;18409.72;5053050;28;20247;-63
2022/12/09 02:42:02;;;;;;;19.77;13.00;;;1.90;99.90;;;-141.84;87.76;18415.81;5053808;28;20630;-63
2022/12/09 02:44:32;;;;;;;20.57;12.93;;;1.90;99.90;;;-141.84;87.97;18403.63;5053075;28;20230;-63
2022/12/09 02:47:04;;;;;;;18.77;12.07;;;1.90;99.90;;;-141.84;87.81;18440.22;5053205;28;20281;-63
2022/12/09 02:49:37;;;;;;;16.80;11.07;;;1.90;99.90;;;-141.84;87.58;18444.28;5052976;28;20291;-63
2022/12/09 02:52:07;;;;;;;19.13;12.27;;;1.90;99.90;;;-141.84;87.75;18415.81;5052896;28;20248;-65
2022/12/09 02:54:38;;;;;;;18.33;11.87;;;1.90;99.90;;;-141.84;87.79;18423.94;5053293;28;20256;-64
2022/12/09 02:57:15;;;;;;;17.80;12.10;;;2.00;99.90;;;-141.84;87.60;18434.13;5053395;28;20547;-62
2022/12/09 02:59:44;;;;;;;18.60;12.13;;;2.00;99.90;;;-141.84;87.44;18450.38;5053351;28;20207;-63
2022/12/09 03:02:24;;;;;;;20.43;12.77;;;2.00;99.90;;;-141.84;87.17;18425.97;5052739;28;20229;-63
2022/12/09 03:05:11;;;;;;;18.53;11.63;;;2.00;99.90;;;-141.84;86.93;18434.13;5052887;28;20221;-62
2022/12/09 03:07:50;;;;;;;18.43;11.93;;;2.00;99.90;;;-141.84;86.95;18413.78;5052799;28;20299;-64
2022/12/09 03:10:25;;;;;;;18.67;11.60;;;1.90;99.90;;;-141.84;86.68;18421.91;5052842;28;20230;-63
2022/12/09 03:13:02;;;;;;;19.03;12.17;;;1.90;99.90;;;-141.84;86.97;18423.94;5052749;28;20225;-63
2022/12/09 03:15:37;;;;;;;16.77;10.97;;;1.90;99.90;;;-141.84;87.25;18436.16;5052670;28;20226;-62
2022/12/09 03:18:13;;;;;;;17.37;11.47;;;1.90;99.90;;;-141.84;87.57;18417.84;5053028;28;20192;-63
2022/12/09 03:20:47;;;;;;;18.50;12.23;;;1.90;99.90;;;-141.84;87.68;18403.63;5053191;28;20187;-63
2022/12/09 03:23:19;;;;;;;18.07;12.00;;;1.90;99.90;;;-141.84;87.86;18407.69;5052333;28;20610;-64
2022/12/09 03:25:53;;;;;;;18.13;12.17;;;1.90;99.90;;;-141.84;87.82;18411.75;5052332;28;20233;-64
2022/12/09 03:28:27;;;;;;;19.77;12.43;;;2.00;99.90;;;-141.84;87.94;18436.16;5052410;28;20315;-62
2022/12/09 03:31:01;;;;;;;18.60;11.60;;;2.00;99.90;;;-141.84;87.99;18405.66;5052173;28;20752;-63
2022/12/09 03:33:31;;;;;;;16.60;10.93;;;2.00;99.90;;;-141.84;88.22;18425.97;5052665;28;20233;-63
2022/12/09 03:36:08;;;;;;;18.60;11.43;;;2.00;99.90;;;-141.84;87.99;18391.44;5052675;28;20214;-62
2022/12/09 03:38:41;;;;;;;20.90;12.43;;;2.00;99.90;;;-141.84;88.02;18395.50;5052425;28;20234;-63
2022/12/09 03:41:20;;;;;;;20.07;12.43;;;2.00;99.90;;;-141.84;88.20;18413.78;5032181;28;20227;-63
2022/12/09 03:43:55;;;;;;;19.50;12.53;;;1.90;99.90;;;-141.84;88.45;18417.84;5038272;28;20298;-63
2022/12/09 03:46:25;;;;;;;18.43;12.23;;;2.00;99.90;;;-141.84;88.29;18395.50;5051830;28;20236;-64
2022/12/09 03:48:53;;;;;;;18.03;11.10;;;2.10;99.90;;;-141.84;88.24;18413.78;5051750;28;20242;-62
2022/12/09 03:51:30;;;;;;;17.60;10.67;;;2.10;99.90;;;-141.84;87.75;18413.78;5051516;28;20578;-63
2022/12/09 03:54:06;;;;;;;16.67;10.97;;;2.10;99.90;;;-141.84;87.46;18407.69;5052379;28;20194;-63
2022/12/09 03:56:41;;;;;;;16.43;10.20;;;2.20;99.90;;;-141.84;87.21;18415.81;5051959;28;20298;-64
2022/12/09 03:59:13;;;;;;;15.40;9.73;;;2.20;99.90;;;-141.84;86.97;18411.75;5051846;28;20623;-62
2022/12/09 04:01:44;;;;;;;13.60;8.90;;;2.10;99.90;;;-141.84;86.94;18399.56;5051467;28;20229;-64
2022/12/09 04:04:13;;;;;;;16.37;9.67;;;2.10;99.90;;;-141.84;86.66;18421.91;5051814;28;20263;-63
2022/12/09 04:06:43;;;;;;;13.10;8.90;;;2.10;99.90;;;-141.84;86.25;18440.22;5051401;28;20731;-63
2022/12/09 04:09:12;;;;;;;13.87;9.07;;;2.20;99.90;;;-141.84;86.35;18419.88;5051817;28;20259;-63
2022/12/09 04:11:41;;;;;;;13.13;8.83;;;2.20;99.90;;;-141.84;85.86;18425.97;5052230;28;20232;-64
2022/12/09 04:14:09;;;;;;;13.33;9.00;;;2.20;99.90;;;-141.84;85.77;18419.88;5044527;28;20243;-63
2022/12/09 04:16:43;;;;;;;14.20;9.13;;;2.20;99.90;;;-141.84;86.14;18413.78;5038914;28;20229;-63
2022/12/09 04:19:12;;;;;;;14.27;9.50;;;2.20;99.90;;;-141.84;86.25;18421.91;5031740;28;20230;-63
2022/12/09 04:21:42;;;;;;;11.67;7.87;;;2.10;99.90;;;-141.84;86.19;18438.19;5036083;28;20522;-63
2022/12/09 04:24:11;;;;;;;11.67;8.57;;;2.20;99.90;;;-141.84;86.23;18430.06;5051183;28;20613;-63
2022/12/09 04:26:40;;;;;;;12.93;8.37;;;2.20;99.90;;;-141.84;86.57;18411.75;5051796;28;20685;-64
2022/12/09 04:29:10;;;;;;;13.30;9.00;;;2.10;99.90;;;-141.84;86.57;18391.44;5051322;28;20244;-64
2022/12/09 04:31:38;;;;;;;13.67;8.50;;;2.20;99.90;;;-141.84;86.87;18456.47;5051360;28;20239;-63
2022/12/09 04:34:07;;;;;;;14.13;9.10;;;2.10;99.90;;;-141.84;86.97;18409.72;5051390;28;20238;-63
2022/12/09 04:36:37;;;;;;;12.97;9.13;;;2.20;99.90;;;-141.84;86.82;18423.94;5050678;28;20313;-63
2022/12/09 04:39:07;;;;;;;13.63;8.73;;;2.40;99.90;;;-141.84;86.72;18428.03;5051503;28;20204;-64
2022/12/09 04:41:36;;;;;;;11.97;8.47;;;2.10;99.90;;;-141.84;86.30;18415.81;5051739;28;20636;-63
2022/12/09 04:44:05;;;;;;;14.27;9.17;;;2.10;99.90;;;-141.84;86.65;18411.75;5051090;28;20639;-63
2022/12/09 04:46:33;;;;;;;14.10;8.27;;;2.10;99.90;;;-141.84;86.21;18440.22;5051186;28;20227;-63
2022/12/09 04:49:02;;;;;;;12.07;8.23;;;2.10;99.90;;;-141.84;86.23;18419.88;5051279;28;20232;-63
2022/12/09 04:51:30;;;;;;;12.93;8.30;;;2.10;99.90;;;-141.84;86.53;18442.25;5051122;28;20225;-63
2022/12/09 04:54:12;;;;;;;13.23;8.80;;;2.00;99.90;;;-141.84;86.73;18425.97;5051226;28;20197;-63
2022/12/09 04:56:41;;;;;;;12.20;8.40;;;1.90;99.90;;;-141.84;86.77;18428.03;5051752;28;20182;-63
2022/12/09 04:59:09;;;;;;;13.03;8.57;;;1.90;99.90;;;-141.84;86.83;18399.56;5050963;28;20232;-65
2022/12/09 05:01:38;;;;;;;14.00;9.33;;;1.80;99.90;;;-141.84;87.14;18434.13;5050951;28;20236;-63
2022/12/09 05:04:07;;;;;;;15.03;9.50;;;1.70;99.90;;;-141.84;87.26;18405.66;5051050;28;20637;-63
2022/12/09 05:06:35;;;;;;;14.87;9.70;;;1.70;99.90;;;-141.84;87.67;18432.09;5051006;28;20260;-63
2022/12/09 05:09:04;;;;;;;15.63;10.07;;;1.70;99.90;;;-141.84;88.08;18411.75;5050941;28;20228;-63
2022/12/09 05:11:34;;;;;;;17.27;10.37;;;1.60;99.90;;;-141.84;88.46;18395.50;5051355;28;20201;-62
2022/12/09 05:14:03;;;;;;;14.10;9.43;;;1.60;99.90;;;-141.84;88.90;18423.94;5050948;28;20719;-64
2022/12/09 05:16:31;;;;;;;22.03;11.20;;;1.50;99.90;;;-141.84;89.08;18369.09;5050977;28;20349;-63
2022/12/09 05:19:00;;;;;;;16.20;9.93;;;1.50;99.90;;;-141.84;88.88;18383.31;5051064;28;20275;-64
2022/12/09 05:21:28;;;;;;;17.57;10.43;;;1.60;99.90;;;-141.84;88.84;18375.19;5051012;28;20294;-63
2022/12/09 05:23:57;;;;;;;17.93;11.23;;;1.60;99.90;;;-141.84;88.97;18423.94;5051669;28;20201;-63
2022/12/09 05:26:25;;;;;;;16.80;10.40;;;1.60;99.90;;;-141.84;88.80;18387.38;5051243;28;20229;-62
2022/12/09 05:28:55;;;;;;;21.50;12.40;;;1.60;99.90;;;-141.84;88.60;18409.72;5050779;28;20228;-62
2022/12/09 05:31:24;;;;;;;17.53;11.13;;;1.60;99.90;;;-141.84;87.95;18401.59;5050734;28;20268;-63
2022/12/09 05:33:53;;;;;;;17.73;10.40;;;1.60;99.90;;;-141.84;88.10;18399.56;5050963;28;20229;-62
2022/12/09 05:36:26;;;;;;;19.10;11.13;;;1.60;99.90;;;-141.84;88.00;18411.75;5050922;28;20555;-62
2022/12/09 05:38:55;;;;;;;18.97;11.13;;;1.60;99.90;;;-141.84;88.03;18387.38;5051264;28;20191;-63
2022/12/09 05:41:24;;;;;;;22.40;11.67;;;1.60;99.90;;;-141.84;87.98;18371.13;5050442;28;20624;-63
2022/12/09 05:43:53;;;;;;;21.10;11.17;;;1.70;99.90;;;-141.84;88.01;18391.44;5050327;28;20316;-63
2022/12/09 05:46:23;;;;;;;21.00;11.70;;;1.60;99.90;;;-141.84;88.19;18442.25;5050602;28;20231;-62
2022/12/09 05:48:51;;;;;;;20.77;11.83;;;1.70;99.90;;;-141.84;87.80;18430.06;5052803;28;20693;-62
2022/12/09 05:51:24;;;;;;;21.70;12.10;;;1.70;99.90;;;-141.84;87.72;18399.56;5054100;28;20202;-63
2022/12/09 05:53:54;;;;;;;24.53;12.50;;;1.70;99.90;;;-141.84;87.56;18395.50;5054984;28;20217;-63
2022/12/09 05:56:24;;;;;;;22.03;12.60;;;1.70;99.90;;;-141.84;87.50;18421.91;5054351;28;20364;-63
2022/12/09 05:58:55;;;;;;;23.30;12.57;;;1.70;99.90;;;-141.84;87.46;18456.47;5053909;28;20619;-63
2022/12/09 06:01:26;;;;;;;21.00;12.10;;;1.70;99.90;;;-141.84;87.69;18395.50;5054054;28;20229;-63
2022/12/09 06:03:55;;;;;;;22.03;12.23;;;1.70;99.90;;;-141.84;87.44;18391.44;5054341;28;20229;-63
2022/12/09 06:06:28;;;;;;;22.67;12.57;;;1.80;99.90;;;-141.84;87.17;18413.78;5054026;28;20316;-64
2022/12/09 06:09:00;;;;;;;22.57;12.30;;;1.80;99.90;;;-141.84;87.01;18425.97;5054567;28;20248;-63
2022/12/09 06:11:30;;;;;;;19.57;12.17;;;1.90;99.90;;;-141.84;86.89;18407.69;5054328;28;20626;-63
2022/12/09 06:13:59;;;;;;;20.57;12.23;;;1.90;99.90;;;-141.84;87.05;18377.22;5053623;28;20248;-62
2022/12/09 06:16:29;;;;;;;21.80;12.40;;;1.90;99.90;;;-141.84;87.11;18428.03;5054020;28;20271;-63
2022/12/09 06:18:58;;;;;;;21.67;12.53;;;1.90;99.90;;;-141.84;87.42;18401.59;5053869;28;20290;-64
2022/12/09 06:21:26;;;;;;;20.57;11.83;;;1.90;99.90;;;-141.84;87.18;18411.75;5054022;28;20229;-63
2022/12/09 06:23:55;;;;;;;20.50;11.60;;;2.00;99.90;;;-141.84;87.41;18421.91;5054161;28;20228;-62
2022/12/09 06:26:26;;;;;;;17.87;11.20;;;2.00;99.90;;;-141.84;87.38;18413.78;5053301;28;20722;-63
2022/12/09 06:28:56;;;;;;;19.53;11.27;;;2.00;99.90;;;-141.84;87.20;18423.94;5053087;28;20236;-63
2022/12/09 06:31:25;;;;;;;17.30;10.93;;;2.00;99.90;;;-141.84;87.14;18444.28;5053811;28;20272;-63
2022/12/09 06:33:56;;;;;;;17.90;10.20;;;2.00;99.90;;;-141.84;86.97;18448.34;5053447;28;20661;-63
2022/12/09 06:36:29;;;;;;;20.03;11.73;;;2.00;99.90;;;-141.84;86.65;18452.41;5053363;28;20226;-63
2022/12/09 06:38:59;;;;;;;18.40;11.57;;;2.10;99.90;;;-141.84;86.85;18438.19;5053957;28;20181;-63
2022/12/09 06:41:36;;;;;;;19.03;11.90;;;2.10;99.90;;;-141.84;86.41;18434.13;5053542;28;20208;-63
2022/12/09 06:44:05;;;;;;;20.33;11.70;;;2.10;99.90;;;-141.84;86.09;18409.72;5053007;28;20228;-63
2022/12/09 06:46:33;;;;;;;18.40;10.67;;;2.10;99.90;;;-141.84;86.06;18436.16;5052842;28;20263;-63
2022/12/09 06:49:03;;;;;;;18.93;11.63;;;2.10;99.90;;;-141.84;86.26;18375.19;5052841;28;20233;-63
2022/12/09 06:51:32;;;;;;;19.43;11.17;;;2.10;99.90;;;-141.84;86.38;18399.56;5039026;28;20234;-63
2022/12/09 06:54:00;;;;;;;20.23;11.77;;;2.10;99.90;;;-141.84;85.99;18423.94;5033668;28;20207;-64
2022/12/09 06:56:31;;;;;;;18.80;11.10;;;2.10;99.90;;;-141.84;85.50;18442.25;5033617;28;20229;-63
2022/12/09 06:58:59;;;;;;;18.40;11.10;;;2.20;99.90;;;-141.84;85.33;18448.34;5032495;28;20305;-64
2022/12/09 07:01:28;;;;;;;17.03;10.67;;;2.10;99.90;;;-141.84;85.61;18423.94;5033250;28;20325;-64
2022/12/09 07:03:57;;;;;;;18.50;11.57;;;2.10;99.90;;;-141.84;85.81;18425.97;5033097;28;20251;-64
2022/12/09 07:06:31;;;;;;;20.67;12.07;;;2.10;99.90;;;-141.84;86.30;18425.97;5033189;28;20300;-63
2022/12/09 07:09:02;;;;;;;19.87;11.57;;;2.10;99.90;;;-141.84;86.11;18428.03;5033267;28;20226;-63
2022/12/09 07:11:31;;;;;;;19.70;11.37;;;2.20;99.90;;;-141.84;85.72;18428.03;5046890;28;20211;-63
2022/12/09 07:14:00;;;;;;;18.60;11.23;;;2.30;99.90;;;-141.84;85.46;18407.69;5052631;28;20225;-63
2022/12/09 07:16:29;;;;;;;17.67;11.00;;;2.30;99.90;;;-141.84;85.77;18436.16;5052922;28;20259;-62
2022/12/09 07:18:58;;;;;;;15.87;10.40;;;2.30;99.90;;;-141.84;85.92;18448.34;5052704;28;20221;-63
2022/12/09 07:21:28;;;;;;;15.50;10.07;;;2.30;99.90;;;-141.84;85.67;18421.91;5052627;28;20246;-63
2022/12/09 07:23:59;;;;;;;15.83;10.07;;;2.30;99.90;;;-141.84;85.86;18430.06;5052912;28;20276;-63
2022/12/09 07:26:31;;;;;;;15.93;9.93;;;2.30;99.90;;;-141.84;85.20;18456.47;5052718;28;20291;-63
2022/12/09 07:29:03;;;;;;;16.57;10.63;;;2.30;99.90;;;-141.84;85.20;18434.13;5052095;28;20231;-63
2022/12/09 07:31:32;;;;;;;16.77;10.77;;;2.30;99.90;;;-141.84;85.10;18397.53;5052334;28;20221;-63
2022/12/09 07:34:02;;;;;;;15.97;10.40;;;2.30;99.90;;;-141.84;85.39;18425.97;5052469;28;20418;-62
2022/12/09 07:36:34;;;;;;;16.60;10.70;;;2.30;99.90;;;-141.84;85.37;18438.19;5052346;28;20222;-63
2022/12/09 07:39:06;;;;;;;15.03;10.43;;;2.40;99.90;;;-141.84;85.54;18421.91;5052144;28;20279;-62
2022/12/09 07:41:35;;;;;;;17.03;10.73;;;2.40;99.90;;;-141.84;85.46;18428.03;5052697;28;20259;-63
2022/12/09 07:44:04;;;;;;;16.07;10.53;;;2.30;99.90;;;-141.84;85.43;18452.41;5052012;28;20235;-64
2022/12/09 07:46:32;;;;;;;17.27;10.53;;;2.40;99.90;;;-141.84;85.23;18417.84;5052559;28;20256;-64
2022/12/09 07:49:03;;;;;;;16.23;10.37;;;2.50;99.90;;;-141.84;84.92;18434.13;5051784;28;20242;-62
2022/12/09 07:51:34;;;;;;;15.77;10.00;;;2.40;99.90;;;-141.84;85.13;18450.38;5052054;28;20286;-63
2022/12/09 07:54:04;;;;;;;16.17;10.27;;;2.50;99.90;;;-141.84;84.45;18391.44;5051325;28;20676;-65
2022/12/09 07:56:32;;;;;;;19.07;11.20;;;2.50;99.90;;;-141.84;83.49;18440.22;5051975;28;20295;-62
2022/12/09 07:59:01;;;;;;;15.33;10.50;;;2.60;99.90;;;-141.84;83.36;18456.47;5051684;28;20374;-64
2022/12/09 08:01:30;;;;;;;15.50;10.17;;;2.60;99.90;;;-141.84;83.84;18460.53;5051833;28;20234;-63
2022/12/09 08:04:00;;;;;;;17.53;11.10;;;2.60;99.90;;;-141.84;84.01;18488.97;5050909;28;20629;-62
2022/12/09 08:06:30;;;;;;;16.20;9.93;;;2.50;99.90;;;-141.84;84.25;18436.16;5052206;28;20228;-63
2022/12/09 08:09:03;;;;;;;16.73;11.00;;;2.50;99.90;;;-141.84;83.87;18442.25;5052433;28;20250;-62
2022/12/09 08:11:33;;;;;;;16.47;10.73;;;2.60;99.90;;;-141.84;83.39;18450.38;5051268;28;20731;-63
2022/12/09 08:14:05;;;;;;;16.13;10.20;;;2.50;99.90;;;-141.84;83.25;18438.19;5051141;28;20229;-63
2022/12/09 08:16:40;;;;;;;17.30;10.53;;;2.60;99.90;;;-141.84;83.17;18476.78;5051660;28;20312;-62
2022/12/09 08:19:10;;;;;;;15.07;10.00;;;2.60;99.90;;;-141.84;83.15;18468.66;5051633;28;20234;-62
2022/12/09 08:21:39;;;;;;;14.80;10.03;;;2.60;99.90;;;-141.84;83.34;18468.66;5051124;28;20235;-62
2022/12/09 08:24:12;;;;;;;16.43;11.83;;;2.60;99.90;;;-141.84;83.93;18454.44;5051478;28;20201;-64
2022/12/09 08:26:41;;;;;;;15.57;10.03;;;2.60;99.90;;;-141.84;84.21;18476.78;5052090;28;20192;-64
2022/12/09 08:29:13;;;;;;;16.90;11.10;;;2.60;99.90;;;-141.84;84.62;18452.41;5051097;28;20258;-63
2022/12/09 08:31:43;;;;;;;18.93;11.47;;;2.60;99.90;;;-141.84;84.14;18428.03;5051396;28;20731;-62
2022/12/09 08:34:12;;;;;;;15.37;11.50;;;2.70;99.90;;;-141.84;83.88;18460.53;5051395;28;20302;-62
2022/12/09 08:36:42;;;;;;;16.73;11.43;;;2.60;99.90;;;-141.84;83.50;18444.28;5051385;28;20244;-63
2022/12/09 08:39:13;;;;;;;20.63;11.57;;;2.70;99.90;;;-141.84;83.69;18413.78;5051188;28;20212;-63
2022/12/09 08:41:43;;;;;;;21.20;11.83;;;2.70;99.90;;;-141.84;84.00;18432.09;5051675;28;20235;-62
2022/12/09 08:44:15;;;;;;;16.27;10.13;;;2.60;99.90;;;-141.84;84.11;18460.53;5050708;28;20736;-63
2022/12/09 08:46:46;;;;;;;18.07;11.40;;;2.60;99.90;;;-141.84;83.59;18440.22;5051112;28;20589;-63
2022/12/09 08:49:18;;;;;;;15.93;11.10;;;2.70;99.90;;;-141.84;82.95;18476.78;5050812;28;20229;-62
2022/12/09 08:51:49;;;;;;;16.73;11.03;;;2.80;99.90;;;-141.84;82.61;18509.28;5050871;28;20251;-63
2022/12/09 08:54:19;;;;;;;18.50;11.20;;;2.80;99.90;;;-141.84;81.72;18474.75;5050878;28;20621;-61
2022/12/09 08:56:53;;;;;;;16.00;10.63;;;2.80;99.90;;;-141.84;81.57;18482.88;5050124;28;20207;-63
2022/12/09 08:59:23;;;;;;;17.53;10.67;;;2.90;99.90;;;-141.84;81.96;18484.91;5050893;28;20730;-60
2022/12/09 09:01:52;;;;;;;15.97;11.13;;;2.90;99.90;;;-141.84;82.13;18497.09;5050756;28;20286;-60
2022/12/09 09:04:21;;;;;;;15.80;10.43;;;3.00;99.90;;;-141.84;81.54;18511.31;5050972;28;20229;-60
2022/12/09 09:06:51;;;;;;;14.93;10.80;;;3.10;99.90;;;-141.84;80.62;18509.28;5050801;28;20251;-59
2022/12/09 09:09:22;;;;;;;14.20;10.53;;;3.10;99.90;;;-141.84;80.44;18525.53;5051076;28;20225;-57
2022/12/09 09:11:50;;;;;;;16.57;10.43;;;3.00;99.90;;;-141.84;80.57;18503.19;5051533;28;20231;-58
2022/12/09 09:14:19;;;;;;;16.07;10.40;;;3.00;99.90;;;-141.84;80.46;18482.88;5050482;28;20232;-64
2022/12/09 09:16:48;;;;;;;16.97;10.23;;;3.00;99.90;;;-141.84;80.86;18507.25;5050505;28;20228;-62
2022/12/09 09:19:24;;;;;;;15.10;10.00;;;3.00;99.90;;;-141.84;80.24;18521.47;5050367;28;20715;-63
2022/12/09 09:21:54;;;;;;;14.37;10.17;;;3.00;99.90;;;-141.84;80.29;18527.56;5051638;28;20229;-63
2022/12/09 09:24:25;;;;;;;15.90;10.93;;;3.00;99.90;;;-141.84;79.38;18519.44;5054536;28;20236;-61
2022/12/09 09:26:54;;;;;;;16.20;10.90;;;3.10;99.90;;;-141.84;79.56;18527.56;5055145;28;20189;-63
2022/12/09 09:29:23;;;;;;;15.10;10.53;;;3.10;99.90;;;-141.84;78.78;18529.59;5054305;28;20235;-63
2022/12/09 09:31:53;;;;;;;15.50;10.40;;;3.10;99.90;;;-141.84;78.92;18545.84;5054602;28;20237;-63
2022/12/09 09:34:24;;;;;;;13.87;10.33;;;3.10;99.90;;;-141.84;79.52;18505.22;5054608;28;20466;-64
2022/12/09 09:36:53;;;;;;;15.70;10.70;;;3.20;99.90;;;-141.84;78.83;18531.63;5054492;28;20226;-64
2022/12/09 09:39:23;;;;;;;15.20;10.97;;;3.20;99.90;;;-141.84;78.82;18521.47;5054327;28;20277;-66
2022/12/09 09:41:54;;;;;;;16.53;10.80;;;3.40;99.90;;;-141.84;77.46;18558.03;5054806;28;20208;-64
2022/12/09 09:44:30;;;;;;;13.40;9.77;;;3.60;99.90;;;-141.84;75.99;18580.41;5054033;28;20691;-64
2022/12/09 09:47:03;;;;;;;13.70;9.77;;;3.80;99.90;;;-141.84;74.46;18625.09;5054026;28;20303;-67
2022/12/09 09:49:38;;;;;;;13.13;10.40;;;4.00;99.90;;;-141.84;74.58;18629.16;5053979;28;20250;-65
2022/12/09 09:52:14;;;;;;;13.67;9.37;;;3.90;99.90;;;-141.84;75.07;18602.75;5053878;28;20231;-61
2022/12/09 09:54:43;;;;;;;12.53;9.43;;;3.90;99.90;;;-141.84;74.96;18635.25;5054387;28;20314;-61
2022/12/09 09:57:17;;;;;;;13.33;9.50;;;3.80;99.90;;;-141.84;75.64;18594.63;5054047;28;20245;-61
2022/12/09 10:00:04;;;;;;;13.67;9.70;;;3.80;99.90;;;-141.84;75.68;18621.03;5054685;28;20185;-61
2022/12/09 10:02:56;;;;;;;13.70;10.03;;;4.00;99.90;;;-141.84;74.25;18623.06;5054171;28;20279;-61
2022/12/09 10:05:31;;;;;;;13.03;9.70;;;4.10;99.90;;;-141.84;72.97;18659.63;5034211;28;20431;-61
2022/12/09 10:08:26;;;;;;;13.57;10.33;;;4.40;99.90;;;-141.84;72.77;18702.28;5049576;28;20232;-62
2022/12/09 10:11:14;;;;;;;15.00;10.43;;;4.40;99.90;;;-141.84;71.88;18667.75;5038128;28;20225;-61
2022/12/09 10:13:55;;;;;;;15.37;10.67;;;4.40;99.90;;;-141.84;72.71;18677.91;5033692;28;20249;-61
2022/12/09 10:16:35;;;;;;;14.53;10.67;;;4.20;99.90;;;-141.84;72.99;18655.56;5033680;28;20230;-61
2022/12/09 10:19:10;;;;;;;15.47;10.77;;;4.20;99.90;;;-141.84;73.94;18659.63;5033992;28;20275;-62